sensor_id;sensor_type;location;lat;lon;timestamp;P1;durP1;ratioP1;P2;durP2;ratioP2
18499;SDS011;9379;52.134;11.576;2023-01-31T00:00:50;8.60;;;3.38;;
18499;SDS011;9379;52.134;11.576;2023-01-31T00:03:17;11.15;;;4.28;;
18499;SDS011;9379;52.134;11.576;2023-01-31T00:05:44;4.93;;;3.78;;
18499;SDS011;9379;52.134;11.576;2023-01-31T00:08:11;6.85;;;3.80;;
18499;SDS011;9379;52.134;11.576;2023-01-31T00:10:40;4.03;;;1.63;;
18499;SDS011;9379;52.134;11.576;2023-01-31T00:13:09;5.82;;;2.75;;
18499;SDS011;9379;52.134;11.576;2023-01-31T00:15:36;4.90;;;2.95;;
18499;SDS011;9379;52.134;11.576;2023-01-31T00:18:02;5.70;;;2.72;;
18499;SDS011;9379;52.134;11.576;2023-01-31T00:20:29;3.10;;;1.88;;
18499;SDS011;9379;52.134;11.576;2023-01-31T00:22:56;7.18;;;2.42;;
18499;SDS011;9379;52.134;11.576;2023-01-31T00:25:23;11.88;;;3.22;;
18499;SDS011;9379;52.134;11.576;2023-01-31T00:27:51;11.57;;;2.67;;
18499;SDS011;9379;52.134;11.576;2023-01-31T00:30:18;3.83;;;2.83;;
18499;SDS011;9379;52.134;11.576;2023-01-31T00:32:45;15.27;;;3.47;;
18499;SDS011;9379;52.134;11.576;2023-01-31T00:35:12;8.30;;;2.83;;
18499;SDS011;9379;52.134;11.576;2023-01-31T00:37:38;6.70;;;2.50;;
18499;SDS011;9379;52.134;11.576;2023-01-31T00:40:06;6.82;;;3.05;;
18499;SDS011;9379;52.134;11.576;2023-01-31T00:42:33;8.85;;;2.65;;
18499;SDS011;9379;52.134;11.576;2023-01-31T00:45:01;4.53;;;1.65;;
18499;SDS011;9379;52.134;11.576;2023-01-31T00:47:28;7.90;;;3.33;;
18499;SDS011;9379;52.134;11.576;2023-01-31T00:49:55;6.55;;;2.42;;
18499;SDS011;9379;52.134;11.576;2023-01-31T00:52:21;13.00;;;3.10;;
18499;SDS011;9379;52.134;11.576;2023-01-31T00:54:48;5.65;;;3.30;;
18499;SDS011;9379;52.134;11.576;2023-01-31T00:57:15;12.93;;;3.70;;
18499;SDS011;9379;52.134;11.576;2023-01-31T00:59:42;5.50;;;2.70;;
18499;SDS011;9379;52.134;11.576;2023-01-31T01:02:10;6.35;;;3.05;;
18499;SDS011;9379;52.134;11.576;2023-01-31T01:04:37;13.32;;;2.80;;
18499;SDS011;9379;52.134;11.576;2023-01-31T01:07:03;9.00;;;2.13;;
18499;SDS011;9379;52.134;11.576;2023-01-31T01:09:30;9.48;;;3.60;;
18499;SDS011;9379;52.134;11.576;2023-01-31T01:11:57;14.43;;;3.15;;
18499;SDS011;9379;52.134;11.576;2023-01-31T01:14:27;6.50;;;2.67;;
18499;SDS011;9379;52.134;11.576;2023-01-31T01:16:54;2.38;;;1.20;;
18499;SDS011;9379;52.134;11.576;2023-01-31T01:19:23;3.63;;;1.83;;
18499;SDS011;9379;52.134;11.576;2023-01-31T01:21:50;8.57;;;2.75;;
18499;SDS011;9379;52.134;11.576;2023-01-31T01:24:20;5.35;;;2.60;;
18499;SDS011;9379;52.134;11.576;2023-01-31T01:26:47;2.97;;;1.60;;
18499;SDS011;9379;52.134;11.576;2023-01-31T01:29:13;13.80;;;4.35;;
18499;SDS011;9379;52.134;11.576;2023-01-31T01:31:40;4.78;;;2.60;;
18499;SDS011;9379;52.134;11.576;2023-01-31T01:34:07;2.95;;;2.17;;
18499;SDS011;9379;52.134;11.576;2023-01-31T01:36:38;11.48;;;3.15;;
18499;SDS011;9379;52.134;11.576;2023-01-31T01:39:07;8.55;;;3.00;;
18499;SDS011;9379;52.134;11.576;2023-01-31T01:41:35;7.28;;;2.05;;
18499;SDS011;9379;52.134;11.576;2023-01-31T01:44:04;7.25;;;2.25;;
18499;SDS011;9379;52.134;11.576;2023-01-31T01:47:09;6.32;;;2.60;;
18499;SDS011;9379;52.134;11.576;2023-01-31T01:49:40;5.57;;;2.13;;
18499;SDS011;9379;52.134;11.576;2023-01-31T01:52:09;4.75;;;1.98;;
18499;SDS011;9379;52.134;11.576;2023-01-31T01:54:38;5.70;;;2.45;;
18499;SDS011;9379;52.134;11.576;2023-01-31T01:57:11;10.55;;;3.30;;
18499;SDS011;9379;52.134;11.576;2023-01-31T01:59:42;3.38;;;2.55;;
18499;SDS011;9379;52.134;11.576;2023-01-31T02:02:13;6.05;;;3.05;;
18499;SDS011;9379;52.134;11.576;2023-01-31T02:04:40;5.70;;;2.90;;
18499;SDS011;9379;52.134;11.576;2023-01-31T02:07:11;9.00;;;1.85;;
18499;SDS011;9379;52.134;11.576;2023-01-31T02:09:41;10.70;;;3.97;;
18499;SDS011;9379;52.134;11.576;2023-01-31T02:12:14;4.72;;;2.22;;
18499;SDS011;9379;52.134;11.576;2023-01-31T02:14:41;4.80;;;2.30;;
18499;SDS011;9379;52.134;11.576;2023-01-31T02:17:10;9.82;;;3.70;;
18499;SDS011;9379;52.134;11.576;2023-01-31T02:19:41;5.70;;;2.83;;
18499;SDS011;9379;52.134;11.576;2023-01-31T02:22:18;5.78;;;3.15;;
18499;SDS011;9379;52.134;11.576;2023-01-31T02:25:10;6.20;;;2.83;;
18499;SDS011;9379;52.134;11.576;2023-01-31T02:27:59;5.55;;;3.22;;
18499;SDS011;9379;52.134;11.576;2023-01-31T02:33:52;4.65;;;2.63;;
18499;SDS011;9379;52.134;11.576;2023-01-31T02:36:28;7.63;;;2.22;;
18499;SDS011;9379;52.134;11.576;2023-01-31T02:39:06;10.30;;;5.03;;
18499;SDS011;9379;52.134;11.576;2023-01-31T02:41:45;5.20;;;2.75;;
18499;SDS011;9379;52.134;11.576;2023-01-31T02:44:19;11.70;;;2.50;;
18499;SDS011;9379;52.134;11.576;2023-01-31T02:47:10;14.15;;;4.75;;
18499;SDS011;9379;52.134;11.576;2023-01-31T02:49:47;3.38;;;2.42;;
18499;SDS011;9379;52.134;11.576;2023-01-31T02:52:23;7.10;;;3.38;;
18499;SDS011;9379;52.134;11.576;2023-01-31T02:54:59;6.03;;;3.80;;
18499;SDS011;9379;52.134;11.576;2023-01-31T02:57:50;4.15;;;2.88;;
18499;SDS011;9379;52.134;11.576;2023-01-31T03:00:19;5.40;;;3.70;;
18499;SDS011;9379;52.134;11.576;2023-01-31T03:02:49;6.03;;;3.10;;
18499;SDS011;9379;52.134;11.576;2023-01-31T03:05:17;7.15;;;3.17;;
18499;SDS011;9379;52.134;11.576;2023-01-31T03:07:45;11.10;;;3.42;;
18499;SDS011;9379;52.134;11.576;2023-01-31T03:10:18;3.75;;;2.58;;
18499;SDS011;9379;52.134;11.576;2023-01-31T03:13:01;14.30;;;2.33;;
18499;SDS011;9379;52.134;11.576;2023-01-31T03:15:46;7.63;;;2.30;;
18499;SDS011;9379;52.134;11.576;2023-01-31T03:18:40;2.17;;;2.00;;
18499;SDS011;9379;52.134;11.576;2023-01-31T03:21:16;1.58;;;1.40;;
18499;SDS011;9379;52.134;11.576;2023-01-31T03:23:49;8.93;;;2.97;;
18499;SDS011;9379;52.134;11.576;2023-01-31T03:26:18;3.38;;;2.50;;
18499;SDS011;9379;52.134;11.576;2023-01-31T03:28:46;9.95;;;4.18;;
18499;SDS011;9379;52.134;11.576;2023-01-31T03:31:20;4.97;;;1.65;;
18499;SDS011;9379;52.134;11.576;2023-01-31T03:33:51;2.90;;;2.47;;
18499;SDS011;9379;52.134;11.576;2023-01-31T03:36:25;4.05;;;3.47;;
18499;SDS011;9379;52.134;11.576;2023-01-31T03:38:57;3.58;;;2.58;;
18499;SDS011;9379;52.134;11.576;2023-01-31T03:41:36;7.72;;;2.55;;
18499;SDS011;9379;52.134;11.576;2023-01-31T03:44:13;8.85;;;2.40;;
18499;SDS011;9379;52.134;11.576;2023-01-31T03:46:46;5.72;;;3.00;;
18499;SDS011;9379;52.134;11.576;2023-01-31T03:49:19;2.97;;;1.73;;
18499;SDS011;9379;52.134;11.576;2023-01-31T03:51:52;10.80;;;3.97;;
18499;SDS011;9379;52.134;11.576;2023-01-31T03:54:24;3.55;;;3.20;;
18499;SDS011;9379;52.134;11.576;2023-01-31T03:56:57;5.80;;;2.95;;
18499;SDS011;9379;52.134;11.576;2023-01-31T03:59:28;4.35;;;2.25;;
18499;SDS011;9379;52.134;11.576;2023-01-31T04:02:00;6.03;;;3.95;;
18499;SDS011;9379;52.134;11.576;2023-01-31T04:04:31;3.78;;;2.88;;
18499;SDS011;9379;52.134;11.576;2023-01-31T04:07:04;11.77;;;3.90;;
18499;SDS011;9379;52.134;11.576;2023-01-31T04:09:31;5.07;;;3.47;;
18499;SDS011;9379;52.134;11.576;2023-01-31T04:11:59;8.65;;;3.60;;
18499;SDS011;9379;52.134;11.576;2023-01-31T04:14:27;11.82;;;3.95;;
18499;SDS011;9379;52.134;11.576;2023-01-31T04:16:55;9.32;;;5.10;;
18499;SDS011;9379;52.134;11.576;2023-01-31T04:19:21;30.65;;;20.30;;
18499;SDS011;9379;52.134;11.576;2023-01-31T04:21:48;49.58;;;36.05;;
18499;SDS011;9379;52.134;11.576;2023-01-31T04:24:16;24.88;;;19.00;;
18499;SDS011;9379;52.134;11.576;2023-01-31T04:26:43;10.77;;;8.93;;
18499;SDS011;9379;52.134;11.576;2023-01-31T04:29:10;10.93;;;5.20;;
18499;SDS011;9379;52.134;11.576;2023-01-31T04:31:36;10.55;;;4.45;;
18499;SDS011;9379;52.134;11.576;2023-01-31T04:34:04;8.45;;;2.95;;
18499;SDS011;9379;52.134;11.576;2023-01-31T04:36:31;4.47;;;3.25;;
18499;SDS011;9379;52.134;11.576;2023-01-31T04:38:57;6.40;;;3.67;;
18499;SDS011;9379;52.134;11.576;2023-01-31T04:41:26;3.13;;;2.10;;
18499;SDS011;9379;52.134;11.576;2023-01-31T04:43:53;10.40;;;3.58;;
18499;SDS011;9379;52.134;11.576;2023-01-31T04:46:20;6.35;;;1.73;;
18499;SDS011;9379;52.134;11.576;2023-01-31T04:48:47;4.85;;;1.80;;
18499;SDS011;9379;52.134;11.576;2023-01-31T04:51:13;2.20;;;1.83;;
18499;SDS011;9379;52.134;11.576;2023-01-31T04:53:41;2.35;;;1.88;;
18499;SDS011;9379;52.134;11.576;2023-01-31T04:56:09;3.53;;;2.13;;
18499;SDS011;9379;52.134;11.576;2023-01-31T04:58:37;6.95;;;3.35;;
18499;SDS011;9379;52.134;11.576;2023-01-31T05:01:05;3.40;;;1.85;;
18499;SDS011;9379;52.134;11.576;2023-01-31T05:03:32;5.82;;;2.10;;
18499;SDS011;9379;52.134;11.576;2023-01-31T05:05:59;3.22;;;1.95;;
18499;SDS011;9379;52.134;11.576;2023-01-31T05:08:26;2.85;;;1.63;;
18499;SDS011;9379;52.134;11.576;2023-01-31T05:10:56;4.35;;;1.60;;
18499;SDS011;9379;52.134;11.576;2023-01-31T05:13:23;3.20;;;2.00;;
18499;SDS011;9379;52.134;11.576;2023-01-31T05:15:51;7.80;;;2.60;;
18499;SDS011;9379;52.134;11.576;2023-01-31T05:18:18;8.75;;;2.17;;
18499;SDS011;9379;52.134;11.576;2023-01-31T05:20:46;1.27;;;1.20;;
18499;SDS011;9379;52.134;11.576;2023-01-31T05:23:14;4.90;;;1.52;;
18499;SDS011;9379;52.134;11.576;2023-01-31T05:25:41;7.93;;;2.75;;
18499;SDS011;9379;52.134;11.576;2023-01-31T05:28:08;4.72;;;2.63;;
18499;SDS011;9379;52.134;11.576;2023-01-31T05:30:36;3.78;;;2.00;;
18499;SDS011;9379;52.134;11.576;2023-01-31T05:33:04;6.88;;;3.72;;
18499;SDS011;9379;52.134;11.576;2023-01-31T05:35:31;3.95;;;2.63;;
18499;SDS011;9379;52.134;11.576;2023-01-31T05:37:58;4.35;;;1.70;;
18499;SDS011;9379;52.134;11.576;2023-01-31T05:40:25;10.00;;;1.85;;
18499;SDS011;9379;52.134;11.576;2023-01-31T05:42:54;6.10;;;1.77;;
18499;SDS011;9379;52.134;11.576;2023-01-31T05:45:22;5.43;;;3.45;;
18499;SDS011;9379;52.134;11.576;2023-01-31T05:47:48;7.22;;;2.40;;
18499;SDS011;9379;52.134;11.576;2023-01-31T05:50:17;1.65;;;1.42;;
18499;SDS011;9379;52.134;11.576;2023-01-31T05:52:48;3.42;;;1.70;;
18499;SDS011;9379;52.134;11.576;2023-01-31T05:55:15;6.72;;;3.33;;
18499;SDS011;9379;52.134;11.576;2023-01-31T05:57:42;9.00;;;1.80;;
18499;SDS011;9379;52.134;11.576;2023-01-31T06:00:09;4.22;;;2.60;;
18499;SDS011;9379;52.134;11.576;2023-01-31T06:02:37;7.45;;;2.65;;
18499;SDS011;9379;52.134;11.576;2023-01-31T06:05:04;5.28;;;2.30;;
18499;SDS011;9379;52.134;11.576;2023-01-31T06:07:32;5.07;;;2.40;;
18499;SDS011;9379;52.134;11.576;2023-01-31T06:09:59;4.75;;;1.73;;
18499;SDS011;9379;52.134;11.576;2023-01-31T06:12:26;7.43;;;2.28;;
18499;SDS011;9379;52.134;11.576;2023-01-31T06:14:53;4.35;;;1.92;;
18499;SDS011;9379;52.134;11.576;2023-01-31T06:17:20;7.38;;;2.58;;
18499;SDS011;9379;52.134;11.576;2023-01-31T06:19:48;3.53;;;2.63;;
18499;SDS011;9379;52.134;11.576;2023-01-31T06:22:15;3.20;;;2.92;;
18499;SDS011;9379;52.134;11.576;2023-01-31T06:24:44;7.40;;;2.95;;
18499;SDS011;9379;52.134;11.576;2023-01-31T06:27:11;11.70;;;3.33;;
18499;SDS011;9379;52.134;11.576;2023-01-31T06:29:37;3.78;;;2.10;;
18499;SDS011;9379;52.134;11.576;2023-01-31T06:32:04;2.75;;;2.03;;
18499;SDS011;9379;52.134;11.576;2023-01-31T06:34:31;7.72;;;2.80;;
18499;SDS011;9379;52.134;11.576;2023-01-31T06:36:58;6.22;;;3.15;;
18499;SDS011;9379;52.134;11.576;2023-01-31T06:39:25;17.42;;;4.05;;
18499;SDS011;9379;52.134;11.576;2023-01-31T06:41:53;4.03;;;2.75;;
18499;SDS011;9379;52.134;11.576;2023-01-31T06:44:20;5.68;;;3.15;;
18499;SDS011;9379;52.134;11.576;2023-01-31T06:46:47;4.45;;;1.88;;
18499;SDS011;9379;52.134;11.576;2023-01-31T06:49:13;6.28;;;2.80;;
18499;SDS011;9379;52.134;11.576;2023-01-31T06:51:40;12.02;;;2.53;;
18499;SDS011;9379;52.134;11.576;2023-01-31T06:54:07;5.72;;;2.78;;
18499;SDS011;9379;52.134;11.576;2023-01-31T06:56:36;5.57;;;2.78;;
18499;SDS011;9379;52.134;11.576;2023-01-31T06:59:04;10.43;;;3.53;;
18499;SDS011;9379;52.134;11.576;2023-01-31T07:01:31;10.85;;;2.40;;
18499;SDS011;9379;52.134;11.576;2023-01-31T07:03:58;3.08;;;1.63;;
18499;SDS011;9379;52.134;11.576;2023-01-31T07:06:25;9.13;;;2.78;;
18499;SDS011;9379;52.134;11.576;2023-01-31T07:08:51;5.95;;;2.35;;
18499;SDS011;9379;52.134;11.576;2023-01-31T07:11:18;7.60;;;2.55;;
18499;SDS011;9379;52.134;11.576;2023-01-31T07:13:45;6.32;;;2.38;;
18499;SDS011;9379;52.134;11.576;2023-01-31T07:16:14;5.10;;;1.70;;
18499;SDS011;9379;52.134;11.576;2023-01-31T07:18:41;5.45;;;2.08;;
18499;SDS011;9379;52.134;11.576;2023-01-31T07:21:08;5.63;;;1.95;;
18499;SDS011;9379;52.134;11.576;2023-01-31T07:23:34;7.60;;;3.58;;
18499;SDS011;9379;52.134;11.576;2023-01-31T07:26:02;4.82;;;3.22;;
18499;SDS011;9379;52.134;11.576;2023-01-31T07:28:29;8.07;;;2.28;;
18499;SDS011;9379;52.134;11.576;2023-01-31T07:31:02;2.80;;;2.50;;
18499;SDS011;9379;52.134;11.576;2023-01-31T07:33:30;2.40;;;0.98;;
18499;SDS011;9379;52.134;11.576;2023-01-31T07:35:57;4.25;;;2.15;;
18499;SDS011;9379;52.134;11.576;2023-01-31T07:38:26;9.32;;;2.22;;
18499;SDS011;9379;52.134;11.576;2023-01-31T07:40:53;4.97;;;3.28;;
18499;SDS011;9379;52.134;11.576;2023-01-31T07:43:23;4.25;;;1.80;;
18499;SDS011;9379;52.134;11.576;2023-01-31T07:45:50;7.60;;;2.20;;
18499;SDS011;9379;52.134;11.576;2023-01-31T07:48:16;2.20;;;1.60;;
18499;SDS011;9379;52.134;11.576;2023-01-31T07:50:48;2.42;;;1.50;;
18499;SDS011;9379;52.134;11.576;2023-01-31T07:53:16;3.90;;;2.92;;
18499;SDS011;9379;52.134;11.576;2023-01-31T07:55:43;12.18;;;3.03;;
18499;SDS011;9379;52.134;11.576;2023-01-31T07:58:11;1.27;;;1.17;;
18499;SDS011;9379;52.134;11.576;2023-01-31T08:00:38;6.90;;;2.22;;
18499;SDS011;9379;52.134;11.576;2023-01-31T08:03:23;2.10;;;1.70;;
18499;SDS011;9379;52.134;11.576;2023-01-31T08:05:59;2.65;;;1.92;;
18499;SDS011;9379;52.134;11.576;2023-01-31T08:08:26;8.32;;;2.92;;
18499;SDS011;9379;52.134;11.576;2023-01-31T08:10:53;5.20;;;1.67;;
18499;SDS011;9379;52.134;11.576;2023-01-31T08:13:19;2.00;;;1.88;;
18499;SDS011;9379;52.134;11.576;2023-01-31T08:15:50;2.33;;;2.13;;
18499;SDS011;9379;52.134;11.576;2023-01-31T08:18:17;6.53;;;2.08;;
18499;SDS011;9379;52.134;11.576;2023-01-31T08:20:44;4.68;;;2.45;;
18499;SDS011;9379;52.134;11.576;2023-01-31T08:23:12;33.42;;;5.53;;
18499;SDS011;9379;52.134;11.576;2023-01-31T08:25:39;3.13;;;2.70;;
18499;SDS011;9379;52.134;11.576;2023-01-31T08:28:06;8.55;;;3.58;;
18499;SDS011;9379;52.134;11.576;2023-01-31T08:30:32;2.25;;;2.05;;
18499;SDS011;9379;52.134;11.576;2023-01-31T08:33:00;3.53;;;2.25;;
18499;SDS011;9379;52.134;11.576;2023-01-31T08:35:27;12.32;;;3.90;;
18499;SDS011;9379;52.134;11.576;2023-01-31T08:37:53;10.07;;;5.22;;
18499;SDS011;9379;52.134;11.576;2023-01-31T08:40:22;3.10;;;2.83;;
18499;SDS011;9379;52.134;11.576;2023-01-31T08:42:52;4.13;;;3.45;;
18499;SDS011;9379;52.134;11.576;2023-01-31T08:45:20;17.10;;;6.32;;
18499;SDS011;9379;52.134;11.576;2023-01-31T08:47:47;8.98;;;3.75;;
18499;SDS011;9379;52.134;11.576;2023-01-31T08:50:19;11.18;;;3.95;;
18499;SDS011;9379;52.134;11.576;2023-01-31T08:52:45;10.25;;;4.53;;
18499;SDS011;9379;52.134;11.576;2023-01-31T08:55:12;10.20;;;2.65;;
18499;SDS011;9379;52.134;11.576;2023-01-31T08:57:42;10.13;;;4.60;;
18499;SDS011;9379;52.134;11.576;2023-01-31T09:00:10;16.50;;;6.47;;
18499;SDS011;9379;52.134;11.576;2023-01-31T09:02:37;9.73;;;6.38;;
18499;SDS011;9379;52.134;11.576;2023-01-31T09:05:04;7.18;;;3.92;;
18499;SDS011;9379;52.134;11.576;2023-01-31T09:07:32;4.65;;;3.42;;
18499;SDS011;9379;52.134;11.576;2023-01-31T09:09:59;13.80;;;4.13;;
18499;SDS011;9379;52.134;11.576;2023-01-31T09:12:26;5.38;;;3.63;;
18499;SDS011;9379;52.134;11.576;2023-01-31T09:14:54;6.72;;;4.38;;
18499;SDS011;9379;52.134;11.576;2023-01-31T09:17:21;5.00;;;3.45;;
18499;SDS011;9379;52.134;11.576;2023-01-31T09:19:48;8.98;;;4.25;;
18499;SDS011;9379;52.134;11.576;2023-01-31T09:22:15;7.80;;;3.70;;
18499;SDS011;9379;52.134;11.576;2023-01-31T09:24:41;8.57;;;3.00;;
18499;SDS011;9379;52.134;11.576;2023-01-31T09:27:10;4.60;;;3.72;;
18499;SDS011;9379;52.134;11.576;2023-01-31T09:29:36;11.65;;;3.90;;
18499;SDS011;9379;52.134;11.576;2023-01-31T09:32:05;4.93;;;3.50;;
18499;SDS011;9379;52.134;11.576;2023-01-31T09:34:32;11.18;;;4.65;;
18499;SDS011;9379;52.134;11.576;2023-01-31T09:36:59;4.80;;;3.00;;
18499;SDS011;9379;52.134;11.576;2023-01-31T09:39:26;8.52;;;3.80;;
18499;SDS011;9379;52.134;11.576;2023-01-31T09:41:53;9.60;;;3.90;;
18499;SDS011;9379;52.134;11.576;2023-01-31T09:44:24;7.30;;;4.72;;
18499;SDS011;9379;52.134;11.576;2023-01-31T09:46:56;12.05;;;4.90;;
18499;SDS011;9379;52.134;11.576;2023-01-31T09:49:35;9.02;;;5.28;;
18499;SDS011;9379;52.134;11.576;2023-01-31T09:52:09;8.05;;;4.40;;
18499;SDS011;9379;52.134;11.576;2023-01-31T09:54:37;6.43;;;3.63;;
18499;SDS011;9379;52.134;11.576;2023-01-31T09:57:09;15.52;;;4.82;;
18499;SDS011;9379;52.134;11.576;2023-01-31T09:59:47;8.40;;;3.67;;
18499;SDS011;9379;52.134;11.576;2023-01-31T10:02:29;10.85;;;3.08;;
18499;SDS011;9379;52.134;11.576;2023-01-31T10:05:10;3.67;;;2.22;;
18499;SDS011;9379;52.134;11.576;2023-01-31T10:07:51;3.15;;;2.88;;
18499;SDS011;9379;52.134;11.576;2023-01-31T10:10:26;9.02;;;3.63;;
18499;SDS011;9379;52.134;11.576;2023-01-31T10:12:59;14.00;;;6.72;;
18499;SDS011;9379;52.134;11.576;2023-01-31T10:15:30;22.92;;;10.27;;
18499;SDS011;9379;52.134;11.576;2023-01-31T10:18:00;8.63;;;5.53;;
18499;SDS011;9379;52.134;11.576;2023-01-31T10:20:34;11.30;;;10.30;;
18499;SDS011;9379;52.134;11.576;2023-01-31T10:23:06;18.25;;;10.68;;
18499;SDS011;9379;52.134;11.576;2023-01-31T10:25:42;16.05;;;8.65;;
18499;SDS011;9379;52.134;11.576;2023-01-31T10:28:13;6.80;;;5.05;;
18499;SDS011;9379;52.134;11.576;2023-01-31T10:30:45;12.45;;;6.70;;
18499;SDS011;9379;52.134;11.576;2023-01-31T10:33:23;16.50;;;7.20;;
18499;SDS011;9379;52.134;11.576;2023-01-31T10:36:01;13.85;;;7.35;;
18499;SDS011;9379;52.134;11.576;2023-01-31T10:38:31;9.63;;;4.97;;
18499;SDS011;9379;52.134;11.576;2023-01-31T10:41:08;9.35;;;6.22;;
18499;SDS011;9379;52.134;11.576;2023-01-31T10:43:41;21.48;;;7.03;;
18499;SDS011;9379;52.134;11.576;2023-01-31T10:46:13;15.98;;;6.88;;
18499;SDS011;9379;52.134;11.576;2023-01-31T10:48:41;11.00;;;6.78;;
18499;SDS011;9379;52.134;11.576;2023-01-31T10:51:15;10.07;;;7.28;;
18499;SDS011;9379;52.134;11.576;2023-01-31T10:53:54;10.15;;;6.53;;
18499;SDS011;9379;52.134;11.576;2023-01-31T10:56:37;16.02;;;8.40;;
18499;SDS011;9379;52.134;11.576;2023-01-31T10:59:10;9.85;;;5.82;;
18499;SDS011;9379;52.134;11.576;2023-01-31T11:01:49;11.68;;;6.78;;
18499;SDS011;9379;52.134;11.576;2023-01-31T11:04:23;7.18;;;6.35;;
18499;SDS011;9379;52.134;11.576;2023-01-31T11:06:56;7.30;;;6.60;;
18499;SDS011;9379;52.134;11.576;2023-01-31T11:09:25;15.60;;;12.27;;
18499;SDS011;9379;52.134;11.576;2023-01-31T11:11:57;15.48;;;12.70;;
18499;SDS011;9379;52.134;11.576;2023-01-31T11:14:25;12.25;;;9.45;;
18499;SDS011;9379;52.134;11.576;2023-01-31T11:16:58;11.07;;;6.03;;
18499;SDS011;9379;52.134;11.576;2023-01-31T11:19:33;7.68;;;5.75;;
18499;SDS011;9379;52.134;11.576;2023-01-31T11:22:03;7.07;;;3.95;;
18499;SDS011;9379;52.134;11.576;2023-01-31T11:24:32;4.68;;;2.90;;
18499;SDS011;9379;52.134;11.576;2023-01-31T11:27:04;4.28;;;3.72;;
18499;SDS011;9379;52.134;11.576;2023-01-31T11:29:35;4.65;;;3.47;;
18499;SDS011;9379;52.134;11.576;2023-01-31T11:32:11;3.22;;;2.97;;
18499;SDS011;9379;52.134;11.576;2023-01-31T11:34:53;9.82;;;4.43;;
18499;SDS011;9379;52.134;11.576;2023-01-31T11:37:22;4.85;;;4.10;;
18499;SDS011;9379;52.134;11.576;2023-01-31T11:39:53;4.90;;;3.75;;
18499;SDS011;9379;52.134;11.576;2023-01-31T11:42:21;3.45;;;3.03;;
18499;SDS011;9379;52.134;11.576;2023-01-31T11:44:56;14.35;;;6.55;;
18499;SDS011;9379;52.134;11.576;2023-01-31T11:47:30;7.32;;;5.20;;
18499;SDS011;9379;52.134;11.576;2023-01-31T11:50:03;11.15;;;6.88;;
18499;SDS011;9379;52.134;11.576;2023-01-31T11:52:32;17.30;;;10.88;;
18499;SDS011;9379;52.134;11.576;2023-01-31T11:55:01;38.58;;;19.95;;
18499;SDS011;9379;52.134;11.576;2023-01-31T11:57:32;42.22;;;21.98;;
18499;SDS011;9379;52.134;11.576;2023-01-31T12:00:03;31.00;;;23.48;;
18499;SDS011;9379;52.134;11.576;2023-01-31T12:02:34;14.82;;;13.07;;
18499;SDS011;9379;52.134;11.576;2023-01-31T12:05:06;17.33;;;10.95;;
18499;SDS011;9379;52.134;11.576;2023-01-31T12:07:44;7.63;;;6.15;;
18499;SDS011;9379;52.134;11.576;2023-01-31T12:10:27;12.52;;;9.73;;
18499;SDS011;9379;52.134;11.576;2023-01-31T12:12:59;11.75;;;8.65;;
18499;SDS011;9379;52.134;11.576;2023-01-31T12:15:28;8.13;;;6.90;;
18499;SDS011;9379;52.134;11.576;2023-01-31T12:17:57;5.57;;;5.07;;
18499;SDS011;9379;52.134;11.576;2023-01-31T12:20:31;5.07;;;4.20;;
18499;SDS011;9379;52.134;11.576;2023-01-31T12:23:11;3.25;;;2.95;;
18499;SDS011;9379;52.134;11.576;2023-01-31T12:25:54;2.40;;;2.20;;
18499;SDS011;9379;52.134;11.576;2023-01-31T12:28:34;3.92;;;2.35;;
18499;SDS011;9379;52.134;11.576;2023-01-31T12:31:16;2.78;;;2.58;;
18499;SDS011;9379;52.134;11.576;2023-01-31T12:34:03;6.68;;;2.72;;
18499;SDS011;9379;52.134;11.576;2023-01-31T12:36:46;4.18;;;2.47;;
18499;SDS011;9379;52.134;11.576;2023-01-31T12:39:36;2.65;;;2.40;;
18499;SDS011;9379;52.134;11.576;2023-01-31T12:42:28;1.63;;;1.52;;
18499;SDS011;9379;52.134;11.576;2023-01-31T12:45:04;2.08;;;1.90;;
18499;SDS011;9379;52.134;11.576;2023-01-31T12:47:44;1.95;;;1.85;;
18499;SDS011;9379;52.134;11.576;2023-01-31T12:50:29;3.10;;;2.40;;
18499;SDS011;9379;52.134;11.576;2023-01-31T12:53:17;2.25;;;2.15;;
18499;SDS011;9379;52.134;11.576;2023-01-31T12:56:03;2.45;;;1.73;;
18499;SDS011;9379;52.134;11.576;2023-01-31T12:58:41;3.83;;;1.90;;
18499;SDS011;9379;52.134;11.576;2023-01-31T13:01:15;3.15;;;2.88;;
18499;SDS011;9379;52.134;11.576;2023-01-31T13:06:50;5.57;;;2.63;;
18499;SDS011;9379;52.134;11.576;2023-01-31T13:09:22;16.95;;;4.90;;
18499;SDS011;9379;52.134;11.576;2023-01-31T13:11:55;9.35;;;8.40;;
18499;SDS011;9379;52.134;11.576;2023-01-31T13:14:26;4.50;;;4.07;;
18499;SDS011;9379;52.134;11.576;2023-01-31T13:16:58;5.68;;;3.90;;
18499;SDS011;9379;52.134;11.576;2023-01-31T13:19:31;4.93;;;2.65;;
18499;SDS011;9379;52.134;11.576;2023-01-31T13:22:03;9.20;;;5.50;;
18499;SDS011;9379;52.134;11.576;2023-01-31T13:24:38;11.38;;;6.47;;
18499;SDS011;9379;52.134;11.576;2023-01-31T13:27:10;10.18;;;6.32;;
18499;SDS011;9379;52.134;11.576;2023-01-31T13:29:45;10.77;;;8.77;;
18499;SDS011;9379;52.134;11.576;2023-01-31T13:32:18;11.77;;;10.68;;
18499;SDS011;9379;52.134;11.576;2023-01-31T13:34:51;8.27;;;7.25;;
18499;SDS011;9379;52.134;11.576;2023-01-31T13:37:21;15.05;;;12.60;;
18499;SDS011;9379;52.134;11.576;2023-01-31T13:39:51;6.22;;;5.63;;
18499;SDS011;9379;52.134;11.576;2023-01-31T13:42:23;4.90;;;4.50;;
18499;SDS011;9379;52.134;11.576;2023-01-31T13:44:51;2.80;;;2.60;;
18499;SDS011;9379;52.134;11.576;2023-01-31T13:47:20;2.63;;;2.42;;
18499;SDS011;9379;52.134;11.576;2023-01-31T13:49:51;2.33;;;1.85;;
18499;SDS011;9379;52.134;11.576;2023-01-31T13:52:22;2.17;;;2.08;;
18499;SDS011;9379;52.134;11.576;2023-01-31T13:54:54;2.53;;;2.25;;
18499;SDS011;9379;52.134;11.576;2023-01-31T13:57:26;3.78;;;2.08;;
18499;SDS011;9379;52.134;11.576;2023-01-31T13:59:59;3.63;;;2.65;;
18499;SDS011;9379;52.134;11.576;2023-01-31T14:02:30;2.22;;;2.05;;
18499;SDS011;9379;52.134;11.576;2023-01-31T14:05:03;2.78;;;2.22;;
18499;SDS011;9379;52.134;11.576;2023-01-31T14:07:31;2.33;;;1.45;;
18499;SDS011;9379;52.134;11.576;2023-01-31T14:15:53;4.07;;;2.58;;
18499;SDS011;9379;52.134;11.576;2023-01-31T14:18:37;2.30;;;2.13;;
18499;SDS011;9379;52.134;11.576;2023-01-31T14:24:17;2.60;;;1.80;;
18499;SDS011;9379;52.134;11.576;2023-01-31T14:27:18;3.50;;;1.95;;
18499;SDS011;9379;52.134;11.576;2023-01-31T14:29:50;2.75;;;2.55;;
18499;SDS011;9379;52.134;11.576;2023-01-31T14:32:24;2.65;;;2.45;;
18499;SDS011;9379;52.134;11.576;2023-01-31T14:34:56;4.85;;;2.42;;
18499;SDS011;9379;52.134;11.576;2023-01-31T14:37:29;3.97;;;3.13;;
18499;SDS011;9379;52.134;11.576;2023-01-31T14:40:08;2.50;;;2.17;;
18499;SDS011;9379;52.134;11.576;2023-01-31T14:42:50;3.72;;;1.88;;
18499;SDS011;9379;52.134;11.576;2023-01-31T14:45:31;1.83;;;1.73;;
18499;SDS011;9379;52.134;11.576;2023-01-31T14:48:18;2.33;;;2.22;;
18499;SDS011;9379;52.134;11.576;2023-01-31T14:50:56;2.03;;;1.92;;
18499;SDS011;9379;52.134;11.576;2023-01-31T14:56:53;4.53;;;3.72;;
18499;SDS011;9379;52.134;11.576;2023-01-31T14:59:28;7.38;;;5.57;;
18499;SDS011;9379;52.134;11.576;2023-01-31T15:02:18;5.60;;;5.05;;
18499;SDS011;9379;52.134;11.576;2023-01-31T15:04:53;5.70;;;5.20;;
18499;SDS011;9379;52.134;11.576;2023-01-31T15:07:21;41.13;;;28.50;;
18499;SDS011;9379;52.134;11.576;2023-01-31T15:09:48;33.13;;;23.65;;
18499;SDS011;9379;52.134;11.576;2023-01-31T15:15:20;7.80;;;7.05;;
18499;SDS011;9379;52.134;11.576;2023-01-31T15:17:53;3.97;;;3.67;;
18499;SDS011;9379;52.134;11.576;2023-01-31T15:20:23;4.07;;;3.88;;
18499;SDS011;9379;52.134;11.576;2023-01-31T15:23:00;7.50;;;7.00;;
18499;SDS011;9379;52.134;11.576;2023-01-31T15:25:33;3.83;;;3.53;;
18499;SDS011;9379;52.134;11.576;2023-01-31T15:28:05;3.80;;;3.50;;